ADDS METAR Data INFO
IDs: Format: Raw Decoded Include TAF

Data at: 0216 UTC 18 Jan 2018

PGSN 180154Z 10015KT 10SM SCT024 31/24 A2988 RMK AO2 RAB27E36 SLP140 P0000 T03110244
PGSN 180054Z 08013KT 10SM FEW026 30/24 A2990 RMK AO2 SLP148 T03000239
PGSN 172354Z 08015KT 10SM FEW021 30/24 A2992 RMK AO2 SLP152 T03000239 10300 20267 51013
PGSN 172254Z 09014KT 10SM SCT021 29/23 A2991 RMK AO2 SLP150 T02890233
PGSN 172154Z 10013KT 10SM SCT021 BKN110 28/24 A2990 RMK AO2 SLP146 T02780244
PGSN 172054Z 09011KT 10SM FEW026 BKN110 27/24 A2988 RMK AO2 SLP140 T02670239 53005
PGSN 171954Z 09012KT 10SM FEW022 OVC110 27/23 A2987 RMK AO2 SLP135 T02670233
PGSN 171854Z 09011KT 10SM FEW024 SCT090 OVC110 27/23 A2986 RMK AO2 SLP133 T02670233
PGSN 171754Z 09011KT 10SM FEW023 OVC110 27/24 A2987 RMK AO2 SLP135 T02670239 10272 20267 56008
PGSN 171654Z 09011KT 10SM FEW024 BKN080 OVC110 27/23 A2987 RMK AO2 SLP136 T02720233
PGSN 171554Z 09010KT 10SM SCT080 SCT095 BKN110 27/24 A2988 RMK AO2 SLP139 T02720239
PGSN 171454Z 09011KT 10SM FEW022 BKN110 27/24 A2989 RMK AO2 SLP143 T02720239 50001
PGSN 171354Z 09010KT 10SM FEW023 BKN110 27/24 A2989 RMK AO2 SLP143 T02720239 403170261
PGSN 171254Z 10011KT 10SM FEW022 SCT090 BKN120 27/24 A2989 RMK AO2 SLP143 T02720244
PGSN 171154Z 09010KT 10SM SCT020 27/25 A2989 RMK AO2 SLP141 60000 T02720250 10294 20267 53008
PGSN 171054Z 09008KT 10SM SCT018 BKN110 27/24 A2988 RMK AO2 SLP139 T02720244
PGSN 170954Z 09014KT 10SM FEW055 27/24 A2987 RMK AO2 SLP136 T02670244
PGSN 170854Z 08010KT 10SM SCT019 27/25 A2986 RMK AO2 RAB32E42 SLP133 P0000 60000 T02670250 51009
PGSN 170754Z 06012KT 10SM FEW019 FEW080 BKN110 27/25 A2986 RMK AO2 SLP132 T02720250
PGSN 170654Z 08015KT 10SM FEW024 28/25 A2985 RMK AO2 RAE05 SLP128 P0000 T02830250
PGSN 170554Z 09015KT 9SM -RA FEW023 BKN090 OVC110 29/25 A2983 RMK AO2 RAB54 SLP124 P0000 60000 T02940250 10317 20294 55007
PGSN 170454Z 07014KT 10SM OVC100 31/24 A2983 RMK AO2 SLP123 T03060239
PGSN 170354Z 07015KT 10SM SCT024 30/24 A2984 RMK AO2 RAB18E28 SLP126 P0000 T03000239
PGSN 170254Z 08015KT 10SM SCT024 30/24 A2985 RMK AO2 RAB33E42 SLP131 P0000 60000 T03000239 58013
PGSN 170154Z 08016G21KT 10SM SCT027 31/24 A2987 RMK AO2 SLP136 T03060244
PGSN 170054Z 09016G22KT 10SM SCT027 29/24 A2989 RMK AO2 SLP144 T02940239
PGSN 162354Z 10016KT 10SM SCT027 29/23 A2989 RMK AO2 SLP144 T02940233 10294 20261 51016
PGSN 162254Z 09011KT 10SM SCT027 29/23 A2989 RMK AO2 SLP143 T02890233
PGSN 162154Z 09012KT 10SM FEW024 FEW030 BKN100 28/24 A2987 RMK AO2 SLP136 T02780239
PGSN 162054Z 09010KT 10SM BKN110 26/24 A2985 RMK AO2 SLP128 T02610239 53009
PGSN 161954Z 10010KT 10SM FEW027 OVC110 27/23 A2983 RMK AO2 SLP123 T02670233
PGSN 161854Z 10012G19KT 10SM FEW024 FEW095 BKN110 27/23 A2982 RMK AO2 SLP121 T02670233
PGSN 161754Z 08014KT 10SM FEW023 SCT033 BKN110 27/24 A2982 RMK AO2 SLP119 T02670239 10272 20261 58008
PGSN 161654Z 09013KT 10SM FEW025 SCT075 BKN110 27/24 A2983 RMK AO2 SLP123 T02670239
PGSN 161554Z 09014KT 10SM FEW024 OVC110 27/23 A2984 RMK AO2 SLP125 T02670233
PGSN 161454Z 08013KT 10SM SCT032 BKN090 OVC110 27/23 A2985 RMK AO2 SLP128 T02670233 58007